East Kilbride, United Kingdom
Current Conditions -  °F | °C
As of 1:50 AM on Tuesday 25 Nov 2014 (Local Time) from EGPF Reporting Station
Haze Haze  
Wind Chill: 45°   Ceiling: 3800
Heat Index: 45°   Visibility: 2.3mi
Dew Point: 45°   Wind: 3mph
Humidity: 100%   Direction: 10°N
Pressure: 30.24"   Gusts: NA
Location:  55.77°N, 4.18°W
Report Text: EGPF 250150Z AUTO 01003KT 3700 BR OVC038 07/07 Q1024 REDZ
Loading
Personal Weather Stations






























Interactive Weather Map New forecast layout! Learn more

10-Day Weather Forecast

Advertisements
Track Severe Weather on mobile